Serena Joye — VB3539 — position and weather

sailwx.info

Track history (hours):
 
Tides and Currents Weather Stations Pressure Air Temp Water Temp Dewpoint Dewpoint Depression Visibility Wind Speed Wind Dir Waves Ship Positions

Serena Joye

Last reported at 2018-Feb-20 01:08 UTC. Time now 2018-Feb-20 06:03 UTC.
Position N 50°53' W 127°56'.

Length 24 m; draft 2.8 m.

Type: Fishing. MMSI: 316002916.

Date/timePositionNaut miles runAvg speedWind from/ knotsBaromVisibWave heightAir tempDewpointWater temp
2018-Feb-20 01:08N 50°53' W 127°56'1 9.9
2018-Feb-20 00:59N 50°53' W 127°54'5 9.6
2018-Feb-20 00:31N 50°51' W 127°47'5 9.6
2018-Feb-20 00:01N 50°50' W 127°40'5 9.8
2018-Feb-19 23:30N 50°48' W 127°33'4 8.4
2018-Feb-19 23:00N 50°44' W 127°28'1 1.7
2018-Feb-19 22:31N 50°43' W 127°28'0 0.0
2018-Feb-19 22:00N 50°43' W 127°28'0 0.0
2018-Feb-19 21:28N 50°43' W 127°28'0 0.0
2018-Feb-19 21:00N 50°43' W 127°28'0 0.0
2018-Feb-19 20:30N 50°43' W 127°28'0 0.0
2018-Feb-19 20:01N 50°43' W 127°28'0 0.0
2018-Feb-19 19:30N 50°43' W 127°28'0 0.0
2018-Feb-19 19:00N 50°43' W 127°28'0 0.0
2018-Feb-19 18:31N 50°43' W 127°28'0 0.0
2018-Feb-19 16:42N 50°43' W 127°28'0 0.0
2018-Feb-19 16:26N 50°43' W 127°28'0 0.0
2018-Feb-19 16:00N 50°43' W 127°28'0 0.0
2018-Feb-19 15:30N 50°43' W 127°28'0 0.0
2018-Feb-19 15:01N 50°43' W 127°28'0 0.0
2018-Feb-19 14:27N 50°43' W 127°28'0 0.0
2018-Feb-19 14:00N 50°43' W 127°28'0 0.0
2018-Feb-19 13:26N 50°43' W 127°28'0 0.0
2018-Feb-19 12:59N 50°43' W 127°28'0 0.0
2018-Feb-19 10:54N 50°43' W 127°28'0 0.0
2018-Feb-19 09:28N 50°43' W 127°28'0 0.0
2018-Feb-19 09:00N 50°43' W 127°28'0 0.0
2018-Feb-19 08:30N 50°43' W 127°28'0 0.0
2018-Feb-19 08:00N 50°43' W 127°28'0 0.0
2018-Feb-19 07:30N 50°43' W 127°28'0 0.0
2018-Feb-19 07:00N 50°43' W 127°28'0 0.0
2018-Feb-19 06:30N 50°43' W 127°28'0 0.0
2018-Feb-19 05:59N 50°43' W 127°28'0 0.0
2018-Feb-19 04:43N 50°43' W 127°28'2 6.7
2018-Feb-19 04:29N 50°45' W 127°27'3 7.0
2018-Feb-19 04:00N 50°44' W 127°22'5 8.5
2018-Feb-19 03:28N 50°41' W 127°16'5 9.2
2018-Feb-19 02:56N 50°38' W 127°10'5 9.5
2018-Feb-19 02:22N 50°37' W 127°02'3 9.1
2018-Feb-19 02:00N 50°35' W 126°58'4 8.5
2018-Feb-19 01:30N 50°34' W 126°51'5 9.2
2018-Feb-19 00:59N 50°33' W 126°44'4 9.1
2018-Feb-19 00:30N 50°31' W 126°37'5 8.9
2018-Feb-19 00:00N 50°31' W 126°30'4 0.3
2018-Feb-18 12:26N 50°30' W 126°37'6 8.4
2018-Feb-18 11:40N 50°33' W 126°46'2 8.1
2018-Feb-18 11:22N 50°33' W 126°50'3 8.0
2018-Feb-18 10:57N 50°34' W 126°55'4 8.9
2018-Feb-18 10:27N 50°36' W 127°01'5 8.2
2018-Feb-18 09:53N 50°37' W 127°08'4 8.7
2018-Feb-18 09:28N 50°39' W 127°13'5 8.2
2018-Feb-18 08:51N 50°42' W 127°19'3 8.1
2018-Feb-18 08:29N 50°44' W 127°23'3 6.3
2018-Feb-18 07:59N 50°44' W 127°28'1 1.3
2018-Feb-18 07:19N 50°43' W 127°28'0 0.0
2018-Feb-18 07:00N 50°43' W 127°28'1 0.4
2018-Feb-18 05:09N 50°43' W 127°29'0 0.0
2018-Feb-18 05:00N 50°43' W 127°29'0 0.0
2018-Feb-18 04:26N 50°43' W 127°29'0 0.0
2018-Feb-18 03:59N 50°43' W 127°29'0 0.0
2018-Feb-18 03:22N 50°43' W 127°29'0 0.0
2018-Feb-18 02:59N 50°43' W 127°29'0 0.0
2018-Feb-18 02:27N 50°43' W 127°29'0 0.0
2018-Feb-18 01:59N 50°43' W 127°29'0 0.0
2018-Feb-18 01:14N 50°43' W 127°29'0 0.0
2018-Feb-18 00:12N 50°43' W 127°29'0 0.0
2018-Feb-17 23:59N 50°43' W 127°29'0 0.0
2018-Feb-17 23:25N 50°43' W 127°29'0 0.0
2018-Feb-17 22:57N 50°43' W 127°29'0 0.0
2018-Feb-17 22:18N 50°43' W 127°29'0 0.0
2018-Feb-17 22:00N 50°43' W 127°29'0 0.0
2018-Feb-17 21:31N 50°43' W 127°29'0 0.0
2018-Feb-17 20:59N 50°43' W 127°29'0 0.0
2018-Feb-17 20:06N 50°43' W 127°29'0 0.0
2018-Feb-17 20:00N 50°43' W 127°29'0 0.0
2018-Feb-17 19:30N 50°43' W 127°29'0 0.0
2018-Feb-17 18:58N 50°43' W 127°29'0 0.0
2018-Feb-17 18:29N 50°43' W 127°29'0 0.0
2018-Feb-17 18:00N 50°43' W 127°29'0 0.0
2018-Feb-17 17:28N 50°43' W 127°29'0 0.0
2018-Feb-17 17:00N 50°43' W 127°29'0 0.0
2018-Feb-17 16:31N 50°43' W 127°29'0 0.0
2018-Feb-17 16:00N 50°43' W 127°29'0 0.0
2018-Feb-17 15:30N 50°43' W 127°29'0 0.0
2018-Feb-17 15:00N 50°43' W 127°29'0 0.0
2018-Feb-17 14:30N 50°43' W 127°29'0 0.0
2018-Feb-17 14:01N 50°43' W 127°29'0 0.0
2018-Feb-17 13:27N 50°43' W 127°29'0 0.0
2018-Feb-17 12:56N 50°43' W 127°29'0 0.0
2018-Feb-17 12:29N 50°43' W 127°29'0 0.0
2018-Feb-17 11:50N 50°43' W 127°29'0 0.0
2018-Feb-17 09:39N 50°43' W 127°29'0 0.0
2018-Feb-17 09:29N 50°43' W 127°29'0 0.0
2018-Feb-17 07:55N 50°43' W 127°29'0 0.0
2018-Feb-17 01:25N 50°43' W 127°29'0 0.0
2018-Feb-16 17:54N 50°43' W 127°29'0 0.0
2018-Feb-16 17:30N 50°43' W 127°29'0 0.0
2018-Feb-16 17:00N 50°43' W 127°29'0 0.0
2018-Feb-16 16:30N 50°43' W 127°29'0 0.0
2018-Feb-16 15:59N 50°43' W 127°29'0 0.0
2018-Feb-16 15:31N 50°43' W 127°29'0 0.0
2018-Feb-16 14:54N 50°43' W 127°29'0 0.0
2018-Feb-16 14:28N 50°43' W 127°29'0 0.0
2018-Feb-16 14:01N 50°43' W 127°29'0 0.0
2018-Feb-16 13:30N 50°43' W 127°29'0 0.0
2018-Feb-16 13:00N 50°43' W 127°29'0 0.0
2018-Feb-16 12:30N 50°43' W 127°29'0 0.0
2018-Feb-16 12:00N 50°43' W 127°29'0 0.0
2018-Feb-16 11:30N 50°43' W 127°29'0 0.0
2018-Feb-16 10:59N 50°43' W 127°29'0 0.0
2018-Feb-16 10:28N 50°43' W 127°29'0 0.0
2018-Feb-16 09:58N 50°43' W 127°29'0 0.0
2018-Feb-16 09:30N 50°43' W 127°29'0 0.0
2018-Feb-16 09:00N 50°43' W 127°29'0 0.0
2018-Feb-16 08:30N 50°43' W 127°29'0 0.0
2018-Feb-16 08:00N 50°43' W 127°29'0 0.0
2018-Feb-16 07:30N 50°43' W 127°29'0 0.0
2018-Feb-16 07:00N 50°43' W 127°29'0 0.0
2018-Feb-16 06:29N 50°43' W 127°29'0 0.0
2018-Feb-16 05:59N 50°43' W 127°29'0 0.0
2018-Feb-16 05:30N 50°43' W 127°29'0 0.0
2018-Feb-16 05:00N 50°43' W 127°29'0 0.0
2018-Feb-16 04:30N 50°43' W 127°29'0 0.0
2018-Feb-16 04:00N 50°43' W 127°29'0 0.0
2018-Feb-16 03:30N 50°43' W 127°29'0 0.0
2018-Feb-16 03:00N 50°43' W 127°29'0 0.0
2018-Feb-16 02:30N 50°43' W 127°29'0 0.0
2018-Feb-16 02:00N 50°43' W 127°29'0 0.0
2018-Feb-16 01:30N 50°43' W 127°29'0 0.0
2018-Feb-14 20:29N 50°43' W 127°29'1 1.6
2018-Feb-14 19:58N 50°43' W 127°28'0 0.0
2018-Feb-14 19:30N 50°43' W 127°28'0 0.8
2018-Feb-14 19:01N 50°43' W 127°28'0 0.0
2018-Feb-14 18:30N 50°43' W 127°28'0 0.0
2018-Feb-14 18:00N 50°43' W 127°28'0 0.0
2018-Feb-14 16:49N 50°43' W 127°28'0 0.0
2018-Feb-14 16:04N 50°43' W 127°28'0 0.0
2018-Feb-14 15:41N 50°43' W 127°28'0 0.0
2018-Feb-14 15:13N 50°43' W 127°28'0 0.0
2018-Feb-14 06:01N 50°43' W 127°28'0 0.0
2018-Feb-14 06:00N 50°43' W 127°28'0 0.0
2018-Feb-14 05:25N 50°43' W 127°28'2 5.8
2018-Feb-14 05:00N 50°45' W 127°26'4 8.5
2018-Feb-14 04:31N 50°43' W 127°20'5 8.7
2018-Feb-14 03:58N 50°40' W 127°14'5 9.3
2018-Feb-14 03:28N 50°38' W 127°08'510.3
2018-Feb-14 02:58N 50°36' W 127°00'610.2
2018-Feb-14 02:26N 50°34' W 126°52'510.3
2018-Feb-14 01:59N 50°33' W 126°45'610.6
2018-Feb-14 01:25N 50°31' W 126°36'12 1.1
2018-Feb-13 13:35N 50°29' W 126°17'6 7.2
2018-Feb-13 12:45N 50°30' W 126°27'2 6.7
2018-Feb-13 12:29N 50°30' W 126°29'4 6.4
2018-Feb-13 11:52N 50°30' W 126°35'3 6.8
2018-Feb-13 11:22N 50°31' W 126°40'3 7.1
2018-Feb-13 10:58N 50°32' W 126°45'4 7.7
2018-Feb-13 10:30N 50°33' W 126°50'4 8.5
2018-Feb-13 10:00N 50°35' W 126°56'5 8.5
2018-Feb-13 09:28N 50°37' W 127°03'5 8.4
2018-Feb-13 08:56N 50°38' W 127°10'5 8.0
2018-Feb-13 08:19N 50°41' W 127°16'2 7.6
2018-Feb-13 07:59N 50°42' W 127°19'4 7.8
2018-Feb-13 07:30N 50°45' W 127°24'3 6.2
2018-Feb-13 07:00N 50°44' W 127°28'0 0.7
2018-Feb-13 06:31N 50°43' W 127°28'0 0.0
2018-Feb-13 06:00N 50°43' W 127°28'  
Track history (hours):
 
Tides and Currents Weather Stations Pressure Air Temp Water Temp Dewpoint Dewpoint Depression Visibility Wind Speed Wind Dir Waves Ship Positions

Serena Joye

Last reported at 2018-Feb-20 01:08 UTC. Time now 2018-Feb-20 06:03 UTC.
Position N 50°53' W 127°56'.

Length 24 m; draft 2.8 m.

Type: Fishing. MMSI: 316002916.

Date/timePositionNaut miles runAvg speedWind from/ knotsBaromVisibWave heightAir tempDewpointWater temp
2018-Feb-20 01:08N 50°53' W 127°56'1 9.9
2018-Feb-20 00:59N 50°53' W 127°54'5 9.6
2018-Feb-20 00:31N 50°51' W 127°47'5 9.6
2018-Feb-20 00:01N 50°50' W 127°40'5 9.8
2018-Feb-19 23:30N 50°48' W 127°33'4 8.4
2018-Feb-19 23:00N 50°44' W 127°28'1 1.7
2018-Feb-19 22:31N 50°43' W 127°28'0 0.0
2018-Feb-19 22:00N 50°43' W 127°28'0 0.0
2018-Feb-19 21:28N 50°43' W 127°28'0 0.0
2018-Feb-19 21:00N 50°43' W 127°28'0 0.0
2018-Feb-19 20:30N 50°43' W 127°28'0 0.0
2018-Feb-19 20:01N 50°43' W 127°28'0 0.0
2018-Feb-19 19:30N 50°43' W 127°28'0 0.0
2018-Feb-19 19:00N 50°43' W 127°28'0 0.0
2018-Feb-19 18:31N 50°43' W 127°28'0 0.0
2018-Feb-19 16:42N 50°43' W 127°28'0 0.0
2018-Feb-19 16:26N 50°43' W 127°28'0 0.0
2018-Feb-19 16:00N 50°43' W 127°28'0 0.0
2018-Feb-19 15:30N 50°43' W 127°28'0 0.0
2018-Feb-19 15:01N 50°43' W 127°28'0 0.0
2018-Feb-19 14:27N 50°43' W 127°28'0 0.0
2018-Feb-19 14:00N 50°43' W 127°28'0 0.0
2018-Feb-19 13:26N 50°43' W 127°28'0 0.0
2018-Feb-19 12:59N 50°43' W 127°28'0 0.0
2018-Feb-19 10:54N 50°43' W 127°28'0 0.0
2018-Feb-19 09:28N 50°43' W 127°28'0 0.0
2018-Feb-19 09:00N 50°43' W 127°28'0 0.0
2018-Feb-19 08:30N 50°43' W 127°28'0 0.0
2018-Feb-19 08:00N 50°43' W 127°28'0 0.0
2018-Feb-19 07:30N 50°43' W 127°28'0 0.0
2018-Feb-19 07:00N 50°43' W 127°28'0 0.0
2018-Feb-19 06:30N 50°43' W 127°28'0 0.0
2018-Feb-19 05:59N 50°43' W 127°28'0 0.0
2018-Feb-19 04:43N 50°43' W 127°28'2 6.7
2018-Feb-19 04:29N 50°45' W 127°27'3 7.0
2018-Feb-19 04:00N 50°44' W 127°22'5 8.5
2018-Feb-19 03:28N 50°41' W 127°16'5 9.2
2018-Feb-19 02:56N 50°38' W 127°10'5 9.5
2018-Feb-19 02:22N 50°37' W 127°02'3 9.1
2018-Feb-19 02:00N 50°35' W 126°58'4 8.5
2018-Feb-19 01:30N 50°34' W 126°51'5 9.2
2018-Feb-19 00:59N 50°33' W 126°44'4 9.1
2018-Feb-19 00:30N 50°31' W 126°37'5 8.9
2018-Feb-19 00:00N 50°31' W 126°30'4 0.3
2018-Feb-18 12:26N 50°30' W 126°37'6 8.4
2018-Feb-18 11:40N 50°33' W 126°46'2 8.1
2018-Feb-18 11:22N 50°33' W 126°50'3 8.0
2018-Feb-18 10:57N 50°34' W 126°55'4 8.9
2018-Feb-18 10:27N 50°36' W 127°01'5 8.2
2018-Feb-18 09:53N 50°37' W 127°08'4 8.7
2018-Feb-18 09:28N 50°39' W 127°13'5 8.2
2018-Feb-18 08:51N 50°42' W 127°19'3 8.1
2018-Feb-18 08:29N 50°44' W 127°23'3 6.3
2018-Feb-18 07:59N 50°44' W 127°28'1 1.3
2018-Feb-18 07:19N 50°43' W 127°28'0 0.0
2018-Feb-18 07:00N 50°43' W 127°28'1 0.4
2018-Feb-18 05:09N 50°43' W 127°29'0 0.0
2018-Feb-18 05:00N 50°43' W 127°29'0 0.0
2018-Feb-18 04:26N 50°43' W 127°29'0 0.0
2018-Feb-18 03:59N 50°43' W 127°29'0 0.0
2018-Feb-18 03:22N 50°43' W 127°29'0 0.0
2018-Feb-18 02:59N 50°43' W 127°29'0 0.0
2018-Feb-18 02:27N 50°43' W 127°29'0 0.0
2018-Feb-18 01:59N 50°43' W 127°29'0 0.0
2018-Feb-18 01:14N 50°43' W 127°29'0 0.0
2018-Feb-18 00:12N 50°43' W 127°29'0 0.0
2018-Feb-17 23:59N 50°43' W 127°29'0 0.0
2018-Feb-17 23:25N 50°43' W 127°29'0 0.0
2018-Feb-17 22:57N 50°43' W 127°29'0 0.0
2018-Feb-17 22:18N 50°43' W 127°29'0 0.0
2018-Feb-17 22:00N 50°43' W 127°29'0 0.0
2018-Feb-17 21:31N 50°43' W 127°29'0 0.0
2018-Feb-17 20:59N 50°43' W 127°29'0 0.0
2018-Feb-17 20:06N 50°43' W 127°29'0 0.0
2018-Feb-17 20:00N 50°43' W 127°29'0 0.0
2018-Feb-17 19:30N 50°43' W 127°29'0 0.0
2018-Feb-17 18:58N 50°43' W 127°29'0 0.0
2018-Feb-17 18:29N 50°43' W 127°29'0 0.0
2018-Feb-17 18:00N 50°43' W 127°29'0 0.0
2018-Feb-17 17:28N 50°43' W 127°29'0 0.0
2018-Feb-17 17:00N 50°43' W 127°29'0 0.0
2018-Feb-17 16:31N 50°43' W 127°29'0 0.0
2018-Feb-17 16:00N 50°43' W 127°29'0 0.0
2018-Feb-17 15:30N 50°43' W 127°29'0 0.0
2018-Feb-17 15:00N 50°43' W 127°29'0 0.0
2018-Feb-17 14:30N 50°43' W 127°29'0 0.0
2018-Feb-17 14:01N 50°43' W 127°29'0 0.0
2018-Feb-17 13:27N 50°43' W 127°29'0 0.0
2018-Feb-17 12:56N 50°43' W 127°29'0 0.0
2018-Feb-17 12:29N 50°43' W 127°29'0 0.0
2018-Feb-17 11:50N 50°43' W 127°29'0 0.0
2018-Feb-17 09:39N 50°43' W 127°29'0 0.0
2018-Feb-17 09:29N 50°43' W 127°29'0 0.0
2018-Feb-17 07:55N 50°43' W 127°29'0 0.0
2018-Feb-17 01:25N 50°43' W 127°29'0 0.0
2018-Feb-16 17:54N 50°43' W 127°29'0 0.0
2018-Feb-16 17:30N 50°43' W 127°29'0 0.0
2018-Feb-16 17:00N 50°43' W 127°29'0 0.0
2018-Feb-16 16:30N 50°43' W 127°29'0 0.0
2018-Feb-16 15:59N 50°43' W 127°29'0 0.0
2018-Feb-16 15:31N 50°43' W 127°29'0 0.0
2018-Feb-16 14:54N 50°43' W 127°29'0 0.0
2018-Feb-16 14:28N 50°43' W 127°29'0 0.0
2018-Feb-16 14:01N 50°43' W 127°29'0 0.0
2018-Feb-16 13:30N 50°43' W 127°29'0 0.0
2018-Feb-16 13:00N 50°43' W 127°29'0 0.0
2018-Feb-16 12:30N 50°43' W 127°29'0 0.0
2018-Feb-16 12:00N 50°43' W 127°29'0 0.0
2018-Feb-16 11:30N 50°43' W 127°29'0 0.0
2018-Feb-16 10:59N 50°43' W 127°29'0 0.0
2018-Feb-16 10:28N 50°43' W 127°29'0 0.0
2018-Feb-16 09:58N 50°43' W 127°29'0 0.0
2018-Feb-16 09:30N 50°43' W 127°29'0 0.0
2018-Feb-16 09:00N 50°43' W 127°29'0 0.0
2018-Feb-16 08:30N 50°43' W 127°29'0 0.0
2018-Feb-16 08:00N 50°43' W 127°29'0 0.0
2018-Feb-16 07:30N 50°43' W 127°29'0 0.0
2018-Feb-16 07:00N 50°43' W 127°29'0 0.0
2018-Feb-16 06:29N 50°43' W 127°29'0 0.0
2018-Feb-16 05:59N 50°43' W 127°29'0 0.0
2018-Feb-16 05:30N 50°43' W 127°29'0 0.0
2018-Feb-16 05:00N 50°43' W 127°29'0 0.0
2018-Feb-16 04:30N 50°43' W 127°29'0 0.0
2018-Feb-16 04:00N 50°43' W 127°29'0 0.0
2018-Feb-16 03:30N 50°43' W 127°29'0 0.0
2018-Feb-16 03:00N 50°43' W 127°29'0 0.0
2018-Feb-16 02:30N 50°43' W 127°29'0 0.0
2018-Feb-16 02:00N 50°43' W 127°29'0 0.0
2018-Feb-16 01:30N 50°43' W 127°29'0 0.0
2018-Feb-14 20:29N 50°43' W 127°29'1 1.6
2018-Feb-14 19:58N 50°43' W 127°28'0 0.0
2018-Feb-14 19:30N 50°43' W 127°28'0 0.8
2018-Feb-14 19:01N 50°43' W 127°28'0 0.0
2018-Feb-14 18:30N 50°43' W 127°28'0 0.0
2018-Feb-14 18:00N 50°43' W 127°28'0 0.0
2018-Feb-14 16:49N 50°43' W 127°28'0 0.0
2018-Feb-14 16:04N 50°43' W 127°28'0 0.0
2018-Feb-14 15:41N 50°43' W 127°28'0 0.0
2018-Feb-14 15:13N 50°43' W 127°28'0 0.0
2018-Feb-14 06:01N 50°43' W 127°28'0 0.0
2018-Feb-14 06:00N 50°43' W 127°28'0 0.0
2018-Feb-14 05:25N 50°43' W 127°28'2 5.8
2018-Feb-14 05:00N 50°45' W 127°26'4 8.5
2018-Feb-14 04:31N 50°43' W 127°20'5 8.7
2018-Feb-14 03:58N 50°40' W 127°14'5 9.3
2018-Feb-14 03:28N 50°38' W 127°08'510.3
2018-Feb-14 02:58N 50°36' W 127°00'610.2
2018-Feb-14 02:26N 50°34' W 126°52'510.3
2018-Feb-14 01:59N 50°33' W 126°45'610.6
2018-Feb-14 01:25N 50°31' W 126°36'12 1.1
2018-Feb-13 13:35N 50°29' W 126°17'6 7.2
2018-Feb-13 12:45N 50°30' W 126°27'2 6.7
2018-Feb-13 12:29N 50°30' W 126°29'4 6.4
2018-Feb-13 11:52N 50°30' W 126°35'3 6.8
2018-Feb-13 11:22N 50°31' W 126°40'3 7.1
2018-Feb-13 10:58N 50°32' W 126°45'4 7.7
2018-Feb-13 10:30N 50°33' W 126°50'4 8.5
2018-Feb-13 10:00N 50°35' W 126°56'5 8.5
2018-Feb-13 09:28N 50°37' W 127°03'5 8.4
2018-Feb-13 08:56N 50°38' W 127°10'5 8.0
2018-Feb-13 08:19N 50°41' W 127°16'2 7.6
2018-Feb-13 07:59N 50°42' W 127°19'4 7.8
2018-Feb-13 07:30N 50°45' W 127°24'3 6.2
2018-Feb-13 07:00N 50°44' W 127°28'0 0.7
2018-Feb-13 06:31N 50°43' W 127°28'0 0.0
2018-Feb-13 06:00N 50°43' W 127°28'  

Dump ship's entire track history